sensor_id;sensor_type;location;lat;lon;timestamp;temperature;humidity
2855;DHT22;1435;49.472;10.940;2023-07-29T00:04:21;19.70;99.90
2855;DHT22;1435;49.472;10.940;2023-07-29T00:09:24;19.60;99.90
2855;DHT22;1435;49.472;10.940;2023-07-29T00:14:26;19.60;99.90
2855;DHT22;1435;49.472;10.940;2023-07-29T00:19:28;19.50;99.90
2855;DHT22;1435;49.472;10.940;2023-07-29T00:24:31;19.50;99.90
2855;DHT22;1435;49.472;10.940;2023-07-29T00:29:32;19.50;99.90
2855;DHT22;1435;49.472;10.940;2023-07-29T00:34:34;19.50;99.90
2855;DHT22;1435;49.472;10.940;2023-07-29T00:39:37;19.50;99.90
2855;DHT22;1435;49.472;10.940;2023-07-29T00:44:39;19.40;99.90
2855;DHT22;1435;49.472;10.940;2023-07-29T00:49:41;19.40;99.90
2855;DHT22;1435;49.472;10.940;2023-07-29T00:54:44;19.40;99.90
2855;DHT22;1435;49.472;10.940;2023-07-29T00:59:46;19.40;99.90
2855;DHT22;1435;49.472;10.940;2023-07-29T01:04:52;19.30;99.90
2855;DHT22;1435;49.472;10.940;2023-07-29T01:10:01;19.30;99.90
2855;DHT22;1435;49.472;10.940;2023-07-29T01:15:11;19.30;99.90
2855;DHT22;1435;49.472;10.940;2023-07-29T01:20:16;19.30;99.90
2855;DHT22;1435;49.472;10.940;2023-07-29T01:25:21;19.30;99.90
2855;DHT22;1435;49.472;10.940;2023-07-29T01:30:29;19.20;99.90
2855;DHT22;1435;49.472;10.940;2023-07-29T01:35:36;19.20;99.90
2855;DHT22;1435;49.472;10.940;2023-07-29T01:40:43;19.10;99.90
2855;DHT22;1435;49.472;10.940;2023-07-29T01:45:45;19.10;99.90
2855;DHT22;1435;49.472;10.940;2023-07-29T01:50:47;19.10;99.90
2855;DHT22;1435;49.472;10.940;2023-07-29T01:55:50;19.00;99.90
2855;DHT22;1435;49.472;10.940;2023-07-29T02:00:51;19.00;99.90
2855;DHT22;1435;49.472;10.940;2023-07-29T02:05:53;18.90;99.90
2855;DHT22;1435;49.472;10.940;2023-07-29T02:10:56;18.90;99.90
2855;DHT22;1435;49.472;10.940;2023-07-29T02:15:58;18.90;99.90
2855;DHT22;1435;49.472;10.940;2023-07-29T02:21:00;18.80;99.90
2855;DHT22;1435;49.472;10.940;2023-07-29T02:26:03;18.80;99.90
2855;DHT22;1435;49.472;10.940;2023-07-29T02:31:14;18.70;99.90
2855;DHT22;1435;49.472;10.940;2023-07-29T02:36:16;18.60;99.90
2855;DHT22;1435;49.472;10.940;2023-07-29T02:41:19;18.60;99.90
2855;DHT22;1435;49.472;10.940;2023-07-29T02:46:21;18.50;99.90
2855;DHT22;1435;49.472;10.940;2023-07-29T02:51:23;18.40;99.90
2855;DHT22;1435;49.472;10.940;2023-07-29T02:56:26;18.40;99.90
2855;DHT22;1435;49.472;10.940;2023-07-29T03:01:28;18.30;99.90
2855;DHT22;1435;49.472;10.940;2023-07-29T03:06:30;18.30;99.90
2855;DHT22;1435;49.472;10.940;2023-07-29T03:11:33;18.20;99.90
2855;DHT22;1435;49.472;10.940;2023-07-29T03:16:34;18.20;99.90
2855;DHT22;1435;49.472;10.940;2023-07-29T03:21:36;18.10;99.90
2855;DHT22;1435;49.472;10.940;2023-07-29T03:26:39;18.10;99.90
2855;DHT22;1435;49.472;10.940;2023-07-29T03:31:41;18.10;99.90
2855;DHT22;1435;49.472;10.940;2023-07-29T03:36:42;18.10;99.90
2855;DHT22;1435;49.472;10.940;2023-07-29T03:41:48;18.00;99.90
2855;DHT22;1435;49.472;10.940;2023-07-29T03:46:50;18.00;99.90
2855;DHT22;1435;49.472;10.940;2023-07-29T03:51:51;18.00;99.90
2855;DHT22;1435;49.472;10.940;2023-07-29T03:56:54;18.00;99.90
2855;DHT22;1435;49.472;10.940;2023-07-29T04:01:56;18.00;99.90
2855;DHT22;1435;49.472;10.940;2023-07-29T04:06:58;18.00;99.90
2855;DHT22;1435;49.472;10.940;2023-07-29T04:12:01;18.00;99.90
2855;DHT22;1435;49.472;10.940;2023-07-29T04:17:03;18.10;99.90
2855;DHT22;1435;49.472;10.940;2023-07-29T04:22:05;18.10;99.90
2855;DHT22;1435;49.472;10.940;2023-07-29T04:27:08;18.10;99.90
2855;DHT22;1435;49.472;10.940;2023-07-29T04:32:10;18.20;99.90
2855;DHT22;1435;49.472;10.940;2023-07-29T04:37:11;18.10;99.90
2855;DHT22;1435;49.472;10.940;2023-07-29T04:42:15;18.20;99.90
2855;DHT22;1435;49.472;10.940;2023-07-29T04:47:16;18.20;99.90
2855;DHT22;1435;49.472;10.940;2023-07-29T04:52:18;18.20;99.90
2855;DHT22;1435;49.472;10.940;2023-07-29T04:57:21;18.30;99.90
2855;DHT22;1435;49.472;10.940;2023-07-29T05:02:23;18.30;99.90
2855;DHT22;1435;49.472;10.940;2023-07-29T05:07:25;18.40;99.90
2855;DHT22;1435;49.472;10.940;2023-07-29T05:12:28;18.40;99.90
2855;DHT22;1435;49.472;10.940;2023-07-29T05:17:30;18.40;99.90
2855;DHT22;1435;49.472;10.940;2023-07-29T05:22:32;18.50;99.90
2855;DHT22;1435;49.472;10.940;2023-07-29T05:27:35;18.50;99.90
2855;DHT22;1435;49.472;10.940;2023-07-29T05:32:36;18.50;99.90
2855;DHT22;1435;49.472;10.940;2023-07-29T05:37:39;18.60;99.90
2855;DHT22;1435;49.472;10.940;2023-07-29T05:42:42;18.60;99.90
2855;DHT22;1435;49.472;10.940;2023-07-29T05:47:44;18.60;99.90
2855;DHT22;1435;49.472;10.940;2023-07-29T05:52:46;18.60;99.90
2855;DHT22;1435;49.472;10.940;2023-07-29T05:57:49;18.70;99.90
2855;DHT22;1435;49.472;10.940;2023-07-29T06:02:50;18.70;99.90
2855;DHT22;1435;49.472;10.940;2023-07-29T06:07:52;18.70;99.90
2855;DHT22;1435;49.472;10.940;2023-07-29T06:12:55;18.70;99.90
2855;DHT22;1435;49.472;10.940;2023-07-29T06:17:57;18.80;99.90
2855;DHT22;1435;49.472;10.940;2023-07-29T06:22:59;18.80;99.90
2855;DHT22;1435;49.472;10.940;2023-07-29T06:28:02;18.80;99.90
2855;DHT22;1435;49.472;10.940;2023-07-29T06:33:03;18.90;99.90
2855;DHT22;1435;49.472;10.940;2023-07-29T06:38:05;18.90;99.90
2855;DHT22;1435;49.472;10.940;2023-07-29T06:43:08;18.90;99.90
2855;DHT22;1435;49.472;10.940;2023-07-29T06:48:10;18.90;99.90
2855;DHT22;1435;49.472;10.940;2023-07-29T06:53:11;18.80;99.90
2855;DHT22;1435;49.472;10.940;2023-07-29T06:58:15;18.90;99.90
2855;DHT22;1435;49.472;10.940;2023-07-29T07:03:16;18.90;99.90
2855;DHT22;1435;49.472;10.940;2023-07-29T07:08:18;18.90;99.90
2855;DHT22;1435;49.472;10.940;2023-07-29T07:13:21;18.90;99.90
2855;DHT22;1435;49.472;10.940;2023-07-29T07:18:23;19.00;99.90
2855;DHT22;1435;49.472;10.940;2023-07-29T07:23:24;19.00;99.90
2855;DHT22;1435;49.472;10.940;2023-07-29T07:28:27;19.00;99.90
2855;DHT22;1435;49.472;10.940;2023-07-29T07:33:29;18.90;99.90
2855;DHT22;1435;49.472;10.940;2023-07-29T07:38:31;19.00;99.90
2855;DHT22;1435;49.472;10.940;2023-07-29T07:43:34;19.00;99.90
2855;DHT22;1435;49.472;10.940;2023-07-29T07:48:35;19.00;99.90
2855;DHT22;1435;49.472;10.940;2023-07-29T07:53:37;19.10;99.90
2855;DHT22;1435;49.472;10.940;2023-07-29T07:58:41;19.10;99.90
2855;DHT22;1435;49.472;10.940;2023-07-29T08:03:43;19.10;99.90
2855;DHT22;1435;49.472;10.940;2023-07-29T08:08:45;19.20;99.90
2855;DHT22;1435;49.472;10.940;2023-07-29T08:13:48;19.10;99.90
2855;DHT22;1435;49.472;10.940;2023-07-29T08:18:49;19.20;99.90
2855;DHT22;1435;49.472;10.940;2023-07-29T08:23:51;19.20;99.90
2855;DHT22;1435;49.472;10.940;2023-07-29T08:28:54;19.20;99.90
2855;DHT22;1435;49.472;10.940;2023-07-29T08:33:56;19.30;99.90
2855;DHT22;1435;49.472;10.940;2023-07-29T08:38:57;19.30;99.90
2855;DHT22;1435;49.472;10.940;2023-07-29T08:44:06;19.30;99.90
2855;DHT22;1435;49.472;10.940;2023-07-29T08:49:11;19.30;99.90
2855;DHT22;1435;49.472;10.940;2023-07-29T08:54:14;19.20;99.90
2855;DHT22;1435;49.472;10.940;2023-07-29T08:59:17;19.20;99.90
2855;DHT22;1435;49.472;10.940;2023-07-29T09:04:20;19.30;99.90
2855;DHT22;1435;49.472;10.940;2023-07-29T09:09:22;19.20;99.90
2855;DHT22;1435;49.472;10.940;2023-07-29T09:14:25;19.20;99.90
2855;DHT22;1435;49.472;10.940;2023-07-29T09:19:28;19.20;99.90
2855;DHT22;1435;49.472;10.940;2023-07-29T09:24:29;19.20;99.90
2855;DHT22;1435;49.472;10.940;2023-07-29T09:29:36;19.30;99.90
2855;DHT22;1435;49.472;10.940;2023-07-29T09:34:41;19.30;99.90
2855;DHT22;1435;49.472;10.940;2023-07-29T09:39:45;19.30;99.90
2855;DHT22;1435;49.472;10.940;2023-07-29T09:44:49;19.40;99.90
2855;DHT22;1435;49.472;10.940;2023-07-29T09:49:51;19.40;99.90
2855;DHT22;1435;49.472;10.940;2023-07-29T09:54:54;19.30;99.90
2855;DHT22;1435;49.472;10.940;2023-07-29T09:59:57;19.30;99.90
2855;DHT22;1435;49.472;10.940;2023-07-29T10:04:59;19.40;99.90
2855;DHT22;1435;49.472;10.940;2023-07-29T10:10:02;19.50;99.90
2855;DHT22;1435;49.472;10.940;2023-07-29T10:15:07;19.50;99.90
2855;DHT22;1435;49.472;10.940;2023-07-29T10:20:10;19.60;99.90
2855;DHT22;1435;49.472;10.940;2023-07-29T10:25:18;19.70;99.90
2855;DHT22;1435;49.472;10.940;2023-07-29T10:30:21;19.80;99.90
2855;DHT22;1435;49.472;10.940;2023-07-29T10:35:23;19.90;99.90
2855;DHT22;1435;49.472;10.940;2023-07-29T10:40:26;20.00;99.90
2855;DHT22;1435;49.472;10.940;2023-07-29T10:45:36;20.00;99.90
2855;DHT22;1435;49.472;10.940;2023-07-29T10:50:39;20.10;99.90
2855;DHT22;1435;49.472;10.940;2023-07-29T10:55:40;20.20;99.90
2855;DHT22;1435;49.472;10.940;2023-07-29T11:00:45;20.30;99.90
2855;DHT22;1435;49.472;10.940;2023-07-29T11:05:49;20.40;99.90
2855;DHT22;1435;49.472;10.940;2023-07-29T11:11:05;20.40;99.90
2855;DHT22;1435;49.472;10.940;2023-07-29T11:16:10;20.60;99.90
2855;DHT22;1435;49.472;10.940;2023-07-29T11:21:17;20.60;99.90
2855;DHT22;1435;49.472;10.940;2023-07-29T11:26:19;20.80;99.90
2855;DHT22;1435;49.472;10.940;2023-07-29T11:31:23;20.80;99.90
2855;DHT22;1435;49.472;10.940;2023-07-29T11:36:24;20.90;99.90
2855;DHT22;1435;49.472;10.940;2023-07-29T11:41:26;21.00;99.90
2855;DHT22;1435;49.472;10.940;2023-07-29T11:46:29;21.10;99.90
2855;DHT22;1435;49.472;10.940;2023-07-29T11:51:31;21.10;99.90
2855;DHT22;1435;49.472;10.940;2023-07-29T11:56:33;21.20;99.90
2855;DHT22;1435;49.472;10.940;2023-07-29T12:01:36;21.30;99.90
2855;DHT22;1435;49.472;10.940;2023-07-29T12:06:39;21.40;99.90
2855;DHT22;1435;49.472;10.940;2023-07-29T12:11:41;21.50;99.90
2855;DHT22;1435;49.472;10.940;2023-07-29T12:16:47;21.60;99.90
2855;DHT22;1435;49.472;10.940;2023-07-29T12:21:49;21.70;99.90
2855;DHT22;1435;49.472;10.940;2023-07-29T12:26:51;21.80;99.90
2855;DHT22;1435;49.472;10.940;2023-07-29T12:31:58;21.90;99.90
2855;DHT22;1435;49.472;10.940;2023-07-29T12:37:02;21.90;99.90
2855;DHT22;1435;49.472;10.940;2023-07-29T12:42:06;22.10;99.90
2855;DHT22;1435;49.472;10.940;2023-07-29T12:47:09;22.10;99.90
2855;DHT22;1435;49.472;10.940;2023-07-29T12:52:12;22.10;99.90
2855;DHT22;1435;49.472;10.940;2023-07-29T12:57:13;22.20;99.90
2855;DHT22;1435;49.472;10.940;2023-07-29T13:02:16;22.30;99.90
2855;DHT22;1435;49.472;10.940;2023-07-29T13:07:18;22.40;99.90
2855;DHT22;1435;49.472;10.940;2023-07-29T13:12:20;22.50;99.90
2855;DHT22;1435;49.472;10.940;2023-07-29T13:17:23;22.70;99.90
2855;DHT22;1435;49.472;10.940;2023-07-29T13:22:25;22.90;99.90
2855;DHT22;1435;49.472;10.940;2023-07-29T13:27:27;22.90;99.90
2855;DHT22;1435;49.472;10.940;2023-07-29T13:32:30;22.90;99.90
2855;DHT22;1435;49.472;10.940;2023-07-29T13:37:32;23.00;99.90
2855;DHT22;1435;49.472;10.940;2023-07-29T13:42:34;23.10;99.90
2855;DHT22;1435;49.472;10.940;2023-07-29T13:47:37;23.20;99.90
2855;DHT22;1435;49.472;10.940;2023-07-29T13:52:38;23.30;99.90
2855;DHT22;1435;49.472;10.940;2023-07-29T13:57:40;23.40;99.90
2855;DHT22;1435;49.472;10.940;2023-07-29T14:02:43;23.50;99.90
2855;DHT22;1435;49.472;10.940;2023-07-29T14:07:45;23.60;99.90
2855;DHT22;1435;49.472;10.940;2023-07-29T14:12:47;23.60;99.90
2855;DHT22;1435;49.472;10.940;2023-07-29T14:17:50;23.70;99.90
2855;DHT22;1435;49.472;10.940;2023-07-29T14:22:51;23.70;99.90
2855;DHT22;1435;49.472;10.940;2023-07-29T14:27:53;23.70;99.90
2855;DHT22;1435;49.472;10.940;2023-07-29T14:32:56;23.80;99.90
2855;DHT22;1435;49.472;10.940;2023-07-29T14:37:58;23.90;99.90
2855;DHT22;1435;49.472;10.940;2023-07-29T14:42:59;23.90;99.90
2855;DHT22;1435;49.472;10.940;2023-07-29T14:48:03;23.90;99.90
2855;DHT22;1435;49.472;10.940;2023-07-29T14:53:05;23.90;99.90
2855;DHT22;1435;49.472;10.940;2023-07-29T14:58:07;24.10;99.90
2855;DHT22;1435;49.472;10.940;2023-07-29T15:03:10;24.10;99.90
2855;DHT22;1435;49.472;10.940;2023-07-29T15:08:12;24.20;99.90
2855;DHT22;1435;49.472;10.940;2023-07-29T15:13:14;24.20;99.90
2855;DHT22;1435;49.472;10.940;2023-07-29T15:18:17;24.40;99.90
2855;DHT22;1435;49.472;10.940;2023-07-29T15:23:19;24.50;99.90
2855;DHT22;1435;49.472;10.940;2023-07-29T15:28:20;24.60;99.90
2855;DHT22;1435;49.472;10.940;2023-07-29T15:33:23;24.70;99.90
2855;DHT22;1435;49.472;10.940;2023-07-29T15:38:25;24.80;99.90
2855;DHT22;1435;49.472;10.940;2023-07-29T15:43:27;24.90;99.90
2855;DHT22;1435;49.472;10.940;2023-07-29T15:48:30;25.00;99.90
2855;DHT22;1435;49.472;10.940;2023-07-29T15:53:32;25.00;99.90
2855;DHT22;1435;49.472;10.940;2023-07-29T15:58:34;25.10;99.90
2855;DHT22;1435;49.472;10.940;2023-07-29T16:03:37;25.20;99.90
2855;DHT22;1435;49.472;10.940;2023-07-29T16:08:41;25.20;99.90
2855;DHT22;1435;49.472;10.940;2023-07-29T16:13:43;25.30;99.90
2855;DHT22;1435;49.472;10.940;2023-07-29T16:18:46;25.30;99.90
2855;DHT22;1435;49.472;10.940;2023-07-29T16:23:48;25.40;99.90
2855;DHT22;1435;49.472;10.940;2023-07-29T16:28:52;25.30;99.90
2855;DHT22;1435;49.472;10.940;2023-07-29T16:33:56;25.30;99.90
2855;DHT22;1435;49.472;10.940;2023-07-29T16:38:57;25.20;99.90
2855;DHT22;1435;49.472;10.940;2023-07-29T16:43:59;25.30;99.90
2855;DHT22;1435;49.472;10.940;2023-07-29T16:49:02;25.40;99.90
2855;DHT22;1435;49.472;10.940;2023-07-29T16:54:04;25.50;99.90
2855;DHT22;1435;49.472;10.940;2023-07-29T16:59:05;25.70;99.90
2855;DHT22;1435;49.472;10.940;2023-07-29T17:04:08;25.80;99.90
2855;DHT22;1435;49.472;10.940;2023-07-29T17:09:10;25.80;99.90
2855;DHT22;1435;49.472;10.940;2023-07-29T17:14:12;25.90;99.90
2855;DHT22;1435;49.472;10.940;2023-07-29T17:19:15;25.90;99.90
2855;DHT22;1435;49.472;10.940;2023-07-29T17:24:16;25.90;99.90
2855;DHT22;1435;49.472;10.940;2023-07-29T17:29:18;25.70;99.90
2855;DHT22;1435;49.472;10.940;2023-07-29T17:34:21;25.70;99.90
2855;DHT22;1435;49.472;10.940;2023-07-29T17:39:23;25.60;99.90
2855;DHT22;1435;49.472;10.940;2023-07-29T17:44:24;25.60;99.90
2855;DHT22;1435;49.472;10.940;2023-07-29T17:49:28;25.50;99.90
2855;DHT22;1435;49.472;10.940;2023-07-29T17:54:29;25.50;99.90
2855;DHT22;1435;49.472;10.940;2023-07-29T17:59:31;25.50;99.90
2855;DHT22;1435;49.472;10.940;2023-07-29T18:04:34;25.50;99.90
2855;DHT22;1435;49.472;10.940;2023-07-29T18:09:36;25.50;99.90
2855;DHT22;1435;49.472;10.940;2023-07-29T18:14:38;25.40;99.90
2855;DHT22;1435;49.472;10.940;2023-07-29T18:19:41;25.40;99.90
2855;DHT22;1435;49.472;10.940;2023-07-29T18:24:44;25.10;99.90
2855;DHT22;1435;49.472;10.940;2023-07-29T18:29:46;25.10;99.90
2855;DHT22;1435;49.472;10.940;2023-07-29T18:34:49;25.00;99.90
2855;DHT22;1435;49.472;10.940;2023-07-29T18:39:51;25.00;99.90
2855;DHT22;1435;49.472;10.940;2023-07-29T18:44:53;25.00;99.90
2855;DHT22;1435;49.472;10.940;2023-07-29T18:49:56;24.90;99.90
2855;DHT22;1435;49.472;10.940;2023-07-29T18:54:59;24.80;99.90
2855;DHT22;1435;49.472;10.940;2023-07-29T19:00:00;24.70;99.90
2855;DHT22;1435;49.472;10.940;2023-07-29T19:05:06;24.70;99.90
2855;DHT22;1435;49.472;10.940;2023-07-29T19:10:09;24.60;99.90
2855;DHT22;1435;49.472;10.940;2023-07-29T19:15:11;24.60;99.90
2855;DHT22;1435;49.472;10.940;2023-07-29T19:20:14;24.50;99.90
2855;DHT22;1435;49.472;10.940;2023-07-29T19:25:16;24.40;99.90
2855;DHT22;1435;49.472;10.940;2023-07-29T19:30:18;24.40;99.90
2855;DHT22;1435;49.472;10.940;2023-07-29T19:35:21;24.30;99.90
2855;DHT22;1435;49.472;10.940;2023-07-29T19:40:22;24.20;99.90
2855;DHT22;1435;49.472;10.940;2023-07-29T19:45:24;24.10;99.90
2855;DHT22;1435;49.472;10.940;2023-07-29T19:50:27;23.90;99.90
2855;DHT22;1435;49.472;10.940;2023-07-29T19:55:29;23.70;99.90
2855;DHT22;1435;49.472;10.940;2023-07-29T20:00:31;23.60;99.90
2855;DHT22;1435;49.472;10.940;2023-07-29T20:05:34;23.50;99.90
2855;DHT22;1435;49.472;10.940;2023-07-29T20:10:36;23.40;99.90
2855;DHT22;1435;49.472;10.940;2023-07-29T20:15:38;23.20;99.90
2855;DHT22;1435;49.472;10.940;2023-07-29T20:20:41;23.10;99.90
2855;DHT22;1435;49.472;10.940;2023-07-29T20:25:43;23.00;99.90
2855;DHT22;1435;49.472;10.940;2023-07-29T20:30:53;22.90;99.90
2855;DHT22;1435;49.472;10.940;2023-07-29T20:35:58;22.80;99.90
2855;DHT22;1435;49.472;10.940;2023-07-29T20:41:00;22.80;99.90
2855;DHT22;1435;49.472;10.940;2023-07-29T20:46:02;22.70;99.90
2855;DHT22;1435;49.472;10.940;2023-07-29T20:51:05;22.30;99.90
2855;DHT22;1435;49.472;10.940;2023-07-29T20:56:06;22.10;99.90
2855;DHT22;1435;49.472;10.940;2023-07-29T21:01:08;21.90;99.90
2855;DHT22;1435;49.472;10.940;2023-07-29T21:06:12;21.90;99.90
2855;DHT22;1435;49.472;10.940;2023-07-29T21:11:13;22.00;99.90
2855;DHT22;1435;49.472;10.940;2023-07-29T21:16:15;21.90;99.90
2855;DHT22;1435;49.472;10.940;2023-07-29T21:21:19;21.90;99.90
2855;DHT22;1435;49.472;10.940;2023-07-29T21:26:21;22.00;99.90
2855;DHT22;1435;49.472;10.940;2023-07-29T21:31:23;22.00;99.90
2855;DHT22;1435;49.472;10.940;2023-07-29T21:36:26;21.90;99.90
2855;DHT22;1435;49.472;10.940;2023-07-29T21:41:27;21.90;99.90
2855;DHT22;1435;49.472;10.940;2023-07-29T21:46:29;21.80;99.90
2855;DHT22;1435;49.472;10.940;2023-07-29T21:51:33;21.50;99.90
2855;DHT22;1435;49.472;10.940;2023-07-29T21:56:35;21.60;99.90
2855;DHT22;1435;49.472;10.940;2023-07-29T22:01:37;21.50;99.90
2855;DHT22;1435;49.472;10.940;2023-07-29T22:06:40;21.60;99.90
2855;DHT22;1435;49.472;10.940;2023-07-29T22:11:41;21.40;99.90
2855;DHT22;1435;49.472;10.940;2023-07-29T22:16:43;21.50;99.90
2855;DHT22;1435;49.472;10.940;2023-07-29T22:21:46;21.50;99.90
2855;DHT22;1435;49.472;10.940;2023-07-29T22:26:50;21.30;99.90
2855;DHT22;1435;49.472;10.940;2023-07-29T22:31:52;21.30;99.90
2855;DHT22;1435;49.472;10.940;2023-07-29T22:36:55;21.40;99.90
2855;DHT22;1435;49.472;10.940;2023-07-29T22:41:57;21.40;99.90
2855;DHT22;1435;49.472;10.940;2023-07-29T22:46:58;21.30;99.90
2855;DHT22;1435;49.472;10.940;2023-07-29T22:52:01;21.30;99.90
2855;DHT22;1435;49.472;10.940;2023-07-29T22:57:03;21.30;99.90
2855;DHT22;1435;49.472;10.940;2023-07-29T23:02:05;21.30;99.90
2855;DHT22;1435;49.472;10.940;2023-07-29T23:07:08;21.30;99.90
2855;DHT22;1435;49.472;10.940;2023-07-29T23:12:10;21.30;99.90
2855;DHT22;1435;49.472;10.940;2023-07-29T23:17:12;21.30;99.90
2855;DHT22;1435;49.472;10.940;2023-07-29T23:22:15;21.20;99.90
2855;DHT22;1435;49.472;10.940;2023-07-29T23:27:16;21.30;99.90
2855;DHT22;1435;49.472;10.940;2023-07-29T23:32:18;21.20;99.90
2855;DHT22;1435;49.472;10.940;2023-07-29T23:37:21;21.20;99.90
2855;DHT22;1435;49.472;10.940;2023-07-29T23:42:23;21.10;99.90
2855;DHT22;1435;49.472;10.940;2023-07-29T23:47:24;21.00;99.90
2855;DHT22;1435;49.472;10.940;2023-07-29T23:52:27;20.80;99.90
2855;DHT22;1435;49.472;10.940;2023-07-29T23:57:29;20.70;99.90
